createdAt,value
2019-02-22T06:09:21.420Z,46.50
2019-02-22T06:11:50.144Z,47.10
2019-02-22T06:14:19.548Z,47.10
2019-02-22T06:16:48.263Z,47.20
2019-02-22T06:19:16.982Z,47.20
2019-02-22T06:21:48.720Z,47.20
2019-02-22T06:24:18.153Z,47.20
2019-02-22T06:26:47.372Z,47.10
2019-02-22T06:29:17.826Z,47.90
2019-02-22T06:31:46.864Z,47.90
2019-02-22T06:34:16.284Z,47.90
2019-02-22T06:36:45.356Z,47.90
2019-02-22T06:39:14.868Z,47.80
2019-02-22T06:41:43.980Z,47.70
2019-02-22T06:44:13.156Z,47.70
2019-02-22T06:46:42.256Z,47.60
2019-02-22T06:49:11.664Z,47.60
2019-02-22T06:51:40.751Z,47.50
2019-02-22T06:54:10.346Z,47.50
2019-02-22T06:56:39.361Z,47.40
2019-02-22T07:01:37.057Z,47.40
2019-02-22T07:04:06.163Z,47.40
2019-02-22T07:06:34.939Z,47.20
2019-02-22T07:09:05.451Z,47.20
2019-02-22T07:11:39.909Z,47.20
2019-02-22T07:14:09.081Z,47.10
2019-02-22T07:16:38.268Z,47.00
2019-02-22T07:19:07.328Z,47.10
2019-02-22T07:21:44.055Z,47.00
2019-02-22T07:24:05.060Z,46.60
2019-02-22T07:26:34.216Z,47.00
2019-02-22T07:29:03.429Z,47.20
2019-02-22T07:34:02.029Z,47.10
2019-02-22T07:36:32.076Z,47.10
2019-02-22T07:39:01.720Z,47.00
2019-02-22T07:41:30.447Z,47.00
2019-02-22T07:44:00.036Z,47.00
2019-02-22T07:46:29.072Z,46.90
2019-02-22T07:48:58.171Z,47.00
2019-02-22T07:51:27.600Z,46.90
2019-02-22T07:53:57.100Z,46.90
2019-02-22T07:56:25.796Z,46.80
2019-02-22T07:58:55.207Z,46.80
2019-02-22T08:01:26.913Z,46.80
2019-02-22T08:03:54.423Z,46.90
2019-02-22T08:06:23.915Z,46.70
2019-02-22T08:08:52.940Z,47.40
2019-02-22T08:11:21.647Z,46.70
2019-02-22T08:13:52.225Z,46.60
2019-02-22T08:16:21.236Z,46.70
2019-02-22T08:19:00.915Z,46.70
2019-02-22T08:21:19.555Z,46.60
2019-02-22T08:23:48.665Z,46.60
2019-02-22T08:26:17.725Z,46.60
2019-02-22T08:28:47.211Z,46.70
2019-02-22T08:31:16.404Z,46.80
2019-02-22T08:33:47.095Z,47.20
2019-02-22T08:36:15.842Z,46.80
2019-02-22T08:38:45.438Z,46.70
2019-02-22T08:41:14.590Z,46.50
2019-02-22T08:43:44.384Z,46.40
2019-02-22T08:46:13.828Z,46.20
2019-02-22T08:48:42.838Z,46.20
2019-02-22T08:51:11.959Z,46.10
2019-02-22T08:53:42.303Z,46.00
2019-02-22T08:56:11.048Z,46.00
2019-02-22T08:58:40.152Z,46.00
2019-02-22T09:01:08.884Z,45.90
2019-02-22T09:03:49.486Z,45.90
2019-02-22T09:06:07.296Z,45.80
2019-02-22T09:08:36.793Z,45.80
2019-02-22T09:11:06.214Z,45.80
2019-02-22T09:13:43.221Z,45.70
2019-02-22T09:16:05.111Z,45.70
2019-02-22T09:18:34.116Z,45.80
2019-02-22T09:21:03.320Z,45.80
2019-02-22T09:23:32.726Z,45.80
2019-02-22T09:26:01.466Z,45.80
2019-02-22T09:28:30.181Z,45.90
2019-02-22T09:30:59.612Z,45.90
2019-02-22T09:33:29.001Z,45.90
2019-02-22T09:35:58.424Z,45.80
2019-02-22T09:38:27.569Z,45.90
2019-02-22T09:40:57.349Z,45.80
2019-02-22T09:43:26.606Z,45.70
2019-02-22T09:45:55.686Z,45.80
2019-02-22T09:48:24.926Z,46.40
2019-02-22T09:50:53.939Z,45.20
2019-02-22T09:53:23.059Z,45.70
2019-02-22T09:55:52.202Z,45.70
2019-02-22T09:58:22.506Z,46.10
2019-02-22T10:00:52.006Z,45.50
2019-02-22T10:05:50.057Z,45.50
2019-02-22T10:08:20.392Z,45.40
2019-02-22T10:10:49.879Z,45.40
2019-02-22T10:13:19.072Z,45.40
2019-02-22T10:15:49.787Z,45.40
2019-02-22T10:18:20.213Z,45.40
2019-02-22T10:20:49.764Z,45.50
2019-02-22T10:23:19.894Z,45.40
2019-02-22T10:25:50.576Z,45.40
2019-02-22T10:28:20.064Z,45.30
2019-02-22T10:30:49.609Z,45.30
2019-02-22T10:33:18.635Z,45.30
2019-02-22T10:35:47.652Z,45.40
2019-02-22T10:38:17.127Z,45.40
2019-02-22T10:40:47.256Z,46.00
2019-02-22T10:43:17.010Z,45.40
2019-02-22T10:45:46.029Z,45.40
2019-02-22T10:48:15.521Z,45.40
2019-02-22T10:50:45.944Z,45.50
2019-02-22T10:53:14.643Z,45.60
2019-02-22T10:55:43.840Z,45.60
2019-02-22T10:58:12.555Z,45.70
2019-02-22T11:00:41.979Z,45.70
2019-02-22T11:03:10.984Z,45.80
2019-02-22T11:05:40.580Z,45.80
2019-02-22T11:08:29.371Z,45.90
2019-02-22T11:10:59.432Z,45.90
2019-02-22T11:13:30.319Z,45.90
2019-02-22T11:15:59.324Z,45.90
2019-02-22T11:18:28.328Z,46.60
2019-02-22T11:20:57.879Z,46.00
2019-02-22T11:23:27.717Z,46.00
2019-02-22T11:25:56.726Z,45.90
2019-02-22T11:28:25.877Z,45.90
2019-02-22T11:30:55.433Z,45.90
2019-02-22T11:33:24.607Z,45.90
2019-02-22T11:35:54.343Z,45.90
2019-02-22T11:38:23.051Z,45.90
2019-02-22T11:40:52.584Z,45.90
2019-02-22T11:43:22.936Z,45.90
2019-02-22T11:45:52.505Z,46.00
2019-02-22T11:48:21.761Z,46.00
2019-02-22T11:50:51.247Z,45.90
2019-02-22T11:53:20.648Z,46.00
2019-02-22T11:55:56.382Z,46.60
2019-02-22T11:58:25.456Z,46.00
2019-02-22T12:00:54.276Z,46.00
2019-02-22T12:03:24.950Z,46.00
2019-02-22T12:05:53.109Z,46.10
2019-02-22T12:08:22.303Z,46.10
2019-02-22T12:10:51.728Z,46.10
2019-02-22T12:13:20.860Z,46.10
2019-02-22T12:15:50.631Z,46.20
2019-02-22T12:18:19.936Z,46.20
2019-02-22T12:20:49.445Z,46.10
2019-02-22T12:23:18.924Z,46.10
2019-02-22T12:25:48.359Z,46.10
2019-02-22T12:28:17.872Z,46.10
2019-02-22T12:30:47.477Z,46.10
2019-02-22T12:33:16.185Z,46.10
2019-02-22T12:38:13.711Z,46.10
2019-02-22T12:40:43.060Z,46.80
2019-02-22T12:43:12.486Z,46.10
2019-02-22T12:45:41.948Z,46.20
2019-02-22T12:48:11.371Z,46.20
2019-02-22T12:50:40.824Z,46.20
2019-02-22T12:53:09.499Z,46.20
2019-02-22T12:55:39.147Z,46.10
2019-02-22T12:58:08.943Z,46.10
2019-02-22T13:00:37.639Z,46.10
2019-02-22T13:03:07.119Z,46.10
2019-02-22T13:05:36.640Z,46.10
2019-02-22T13:08:05.980Z,46.10
2019-02-22T13:10:35.460Z,46.10
2019-02-22T13:13:04.783Z,46.10
2019-02-22T13:15:34.134Z,46.10
2019-02-22T13:18:03.253Z,46.00
2019-02-22T13:20:32.337Z,46.10
2019-02-22T13:23:01.135Z,46.10
2019-02-22T13:25:30.606Z,46.20
2019-02-22T13:28:00.116Z,46.10
2019-02-22T13:30:29.315Z,46.10
2019-02-22T13:32:58.568Z,46.20
2019-02-22T13:35:27.576Z,46.10
2019-02-22T13:37:57.632Z,46.10
2019-02-22T13:40:26.683Z,46.10
2019-02-22T13:42:56.195Z,46.10
2019-02-22T13:45:27.105Z,46.10
2019-02-22T13:47:54.900Z,46.20
2019-02-22T13:50:24.033Z,46.20
2019-02-22T13:52:54.563Z,46.20
2019-02-22T13:55:23.628Z,46.30
2019-02-22T13:57:52.888Z,46.30
2019-02-22T14:00:21.633Z,46.30
2019-02-22T14:02:51.156Z,46.30
2019-02-22T14:05:20.236Z,46.30
2019-02-22T14:07:51.638Z,46.30
2019-02-22T14:10:21.147Z,46.30
2019-02-22T14:12:50.722Z,46.30
2019-02-22T14:15:20.410Z,46.30
2019-02-22T14:17:49.517Z,46.30
2019-02-22T14:20:18.285Z,46.40
2019-02-22T14:22:49.046Z,46.40
2019-02-22T14:25:18.220Z,46.30
2019-02-22T14:27:47.700Z,46.40
2019-02-22T14:30:17.001Z,46.40
2019-02-22T14:32:46.056Z,46.30
2019-02-22T14:35:15.052Z,46.30
2019-02-22T14:37:44.231Z,46.30
2019-02-22T14:40:13.048Z,46.30
2019-02-22T14:42:42.614Z,46.30
2019-02-22T14:45:11.648Z,46.30
2019-02-22T14:47:40.888Z,46.30
2019-02-22T14:50:12.515Z,46.30
2019-02-22T14:52:41.936Z,46.40
2019-02-22T14:55:11.427Z,46.30
2019-02-22T14:57:40.656Z,46.40
2019-02-22T15:00:12.911Z,46.40
2019-02-22T15:02:41.944Z,46.30
2019-02-22T15:05:12.082Z,46.30
2019-02-22T15:07:41.601Z,46.30
2019-02-22T15:10:10.480Z,46.30
2019-02-22T15:12:40.961Z,46.30
2019-02-22T15:15:10.651Z,46.40
2019-02-22T15:17:45.518Z,46.40
2019-02-22T15:20:14.719Z,46.50
2019-02-22T15:22:44.556Z,46.40
2019-02-22T15:25:13.653Z,46.30
2019-02-22T15:27:42.778Z,46.30
2019-02-22T15:30:12.475Z,46.30
2019-02-22T15:32:41.589Z,46.40
2019-02-22T15:35:12.383Z,46.30
2019-02-22T15:37:43.365Z,46.30
2019-02-22T15:40:11.188Z,46.30
2019-02-22T15:42:40.810Z,46.20
2019-02-22T15:45:10.697Z,46.20
2019-02-22T15:47:40.193Z,46.20
2019-02-22T15:50:11.625Z,46.10
2019-02-22T15:52:41.191Z,46.20
2019-02-22T15:55:10.065Z,46.30
2019-02-22T15:57:39.587Z,46.40
2019-02-22T16:00:11.979Z,46.60
2019-02-22T16:02:41.563Z,46.70
2019-02-22T16:05:16.186Z,46.80
2019-02-22T16:07:45.402Z,46.30
2019-02-22T16:10:14.802Z,46.90
2019-02-22T16:12:43.999Z,46.80
2019-02-22T16:15:13.063Z,46.90
2019-02-22T16:17:42.248Z,46.80
2019-02-22T16:20:11.701Z,46.80
2019-02-22T16:22:41.686Z,46.80
2019-02-22T16:25:19.755Z,46.80
2019-02-22T16:27:44.427Z,46.90
2019-02-22T16:30:13.597Z,47.10
2019-02-22T16:32:42.721Z,46.90
2019-02-22T16:35:12.057Z,46.60
2019-02-22T16:37:41.548Z,46.40
2019-02-22T16:40:11.238Z,46.30
2019-02-22T16:42:40.685Z,46.30
2019-02-22T16:45:10.208Z,46.10
2019-02-22T16:47:40.446Z,46.20
2019-02-22T16:50:10.228Z,46.00
2019-02-22T16:52:39.585Z,46.00
2019-02-22T16:55:10.967Z,46.00
2019-02-22T16:57:40.493Z,46.00
2019-02-22T17:02:38.903Z,45.90
2019-02-22T17:05:09.396Z,45.90
2019-02-22T17:07:38.876Z,45.80
2019-02-22T17:10:09.447Z,45.80
2019-02-22T17:12:38.873Z,45.90
2019-02-22T17:15:10.623Z,46.00
2019-02-22T17:17:40.150Z,46.10
2019-02-22T17:20:10.028Z,46.10
2019-02-22T17:22:39.953Z,46.10
2019-02-22T17:25:10.572Z,45.90
2019-02-22T17:27:40.028Z,46.00
2019-02-22T17:30:10.411Z,46.00
2019-02-22T17:32:39.684Z,46.00
2019-02-22T17:35:08.800Z,46.00
2019-02-22T17:37:38.246Z,46.00
2019-02-22T17:40:10.340Z,46.00
2019-02-22T17:42:39.828Z,46.00
2019-02-22T17:45:09.579Z,46.00
2019-02-22T17:47:39.037Z,46.60
2019-02-22T17:50:08.347Z,46.00
2019-02-22T17:52:37.070Z,45.90
2019-02-22T17:55:07.085Z,46.60
2019-02-22T17:57:36.447Z,45.90
2019-02-22T18:00:06.616Z,45.90
2019-02-22T18:02:36.233Z,45.90
2019-02-22T18:05:05.646Z,45.80
2019-02-22T18:07:35.168Z,46.60
2019-02-22T18:10:04.397Z,45.70
2019-02-22T18:12:33.519Z,45.80
2019-02-22T18:15:02.523Z,45.70
2019-02-22T18:17:31.656Z,45.60
2019-02-22T18:20:00.816Z,45.60
2019-02-22T18:22:29.818Z,45.70
2019-02-22T18:24:58.911Z,45.70
2019-02-22T18:27:28.028Z,45.70
2019-02-22T18:29:58.519Z,45.70
2019-02-22T18:32:27.988Z,46.20
2019-02-22T18:34:57.476Z,45.70
2019-02-22T18:37:27.562Z,45.60
2019-02-22T18:39:57.087Z,45.60
2019-02-22T18:42:26.493Z,45.70
2019-02-22T18:44:55.992Z,45.60
2019-02-22T18:47:25.245Z,45.60
2019-02-22T18:49:53.956Z,45.60
2019-02-22T18:52:23.147Z,45.60
2019-02-22T18:54:52.211Z,45.60
2019-02-22T18:57:21.270Z,45.50
2019-02-22T18:59:50.249Z,45.50
2019-02-22T19:02:19.293Z,45.70
2019-02-22T19:04:48.753Z,45.60
2019-02-22T19:07:17.855Z,45.50
2019-02-22T19:09:47.319Z,45.50
2019-02-22T19:12:16.839Z,45.90
2019-02-22T19:14:45.934Z,45.60
2019-02-22T19:17:15.978Z,45.70
2019-02-22T19:19:45.125Z,45.60
2019-02-22T19:22:15.389Z,45.60
2019-02-22T19:24:44.936Z,45.70
2019-02-22T19:27:15.438Z,45.70
2019-02-22T19:29:44.136Z,45.70
2019-02-22T19:32:13.572Z,45.80
2019-02-22T19:34:43.151Z,45.70
2019-02-22T19:37:12.241Z,45.80
2019-02-22T19:39:41.699Z,46.00
2019-02-22T19:42:11.093Z,45.70
2019-02-22T19:44:40.293Z,46.00
2019-02-22T19:47:09.076Z,46.00
2019-02-22T19:49:39.408Z,46.00
2019-02-22T19:52:08.909Z,46.10
2019-02-22T19:54:37.699Z,46.10
2019-02-22T19:57:07.084Z,46.10
2019-02-22T19:59:36.558Z,46.10
2019-02-22T20:02:05.599Z,46.20
2019-02-22T20:04:35.030Z,46.30
2019-02-22T20:07:04.123Z,46.30
2019-02-22T20:09:33.579Z,46.30
2019-02-22T20:12:03.032Z,46.30
2019-02-22T20:14:32.648Z,46.30
2019-02-22T20:17:02.157Z,46.20
2019-02-22T20:19:31.727Z,46.30
2019-02-22T20:22:01.124Z,46.30
2019-02-22T20:24:30.549Z,46.30
2019-02-22T20:26:59.763Z,46.30
2019-02-22T20:29:29.221Z,46.40
2019-02-22T20:31:59.440Z,46.40
2019-02-22T20:34:29.195Z,46.20
2019-02-22T20:36:58.410Z,46.30
2019-02-22T20:39:27.796Z,46.40
2019-02-22T20:41:58.800Z,46.30
2019-02-22T20:44:28.299Z,46.30
2019-02-22T20:46:57.828Z,46.30
2019-02-22T20:49:27.248Z,46.30
2019-02-22T20:51:57.090Z,46.30
2019-02-22T20:54:26.501Z,46.00
2019-02-22T20:56:56.030Z,46.20
2019-02-22T20:59:27.466Z,46.10
2019-02-22T21:01:56.948Z,45.90
2019-02-22T21:04:26.915Z,46.10
2019-02-22T21:06:56.404Z,46.00
2019-02-22T21:09:25.827Z,46.10
2019-02-22T21:11:54.933Z,46.10
2019-02-22T21:14:25.130Z,46.00
2019-02-22T21:16:54.127Z,46.10
2019-02-22T21:19:23.571Z,46.10
2019-02-22T21:21:54.556Z,46.70
2019-02-22T21:24:24.735Z,46.00
2019-02-22T21:26:54.676Z,46.00
2019-02-22T21:29:24.178Z,46.00
2019-02-22T21:31:53.557Z,46.00
2019-02-22T21:36:55.272Z,46.00
2019-02-22T21:39:24.646Z,45.90
2019-02-22T21:41:54.150Z,45.90
2019-02-22T21:44:23.531Z,45.90
2019-02-22T21:46:53.060Z,45.90
2019-02-22T21:49:22.721Z,45.90
2019-02-22T21:51:53.036Z,45.90
